^^
Your Local Weather - Clay, NY Station Historical Data
Daily Summary for September 30, 2017 Units:  English    Metric   Both
« Previous Day
Next Day »
Daily Weekly Monthly Yearly Custom
  High: Low: Average:
Temperature: 57.5 °F 38.8 °F 49.3 °F
Dew Point: 50.3 °F 36.7 °F 43.1 °F
Humidity: 94% 48% 81%
Wind Speed: 7.0mph 0.0mph 2.1mph
Wind Gust: 10.0mph - -
Wind- - West
Pressure: 30.37 in 29.94 in -
Precipitation: 0.06 in    
Historical Graphs
 
 
Tabular Data for September 30, 2017
Time Temperature Dew Point Pressure Wind Wind Speed Wind Gust Humidity Rainfall Rate (Hourly) solar
00:02 51.4 °F 49.4 °F 29.94 in Calm     93% 0.00 in 0 W/m2
00:08 51.5 °F 49.5 °F 29.94 in Calm     93% 0.00 in 0 W/m2
00:14 51.5 °F 49.5 °F 29.94 in Calm     93% 0.00 in 0 W/m2
00:20 51.5 °F 49.5 °F 29.94 in Calm     93% 0.00 in 0 W/m2
00:26 51.5 °F 49.5 °F 29.94 in Calm     93% 0.00 in 0 W/m2
00:32 51.6 °F 49.6 °F 29.94 in Calm     93% 0.00 in 0 W/m2
00:38 51.7 °F 49.7 °F 29.94 in Calm     93% 0.00 in 0 W/m2
00:44 51.6 °F 49.6 °F 29.94 in Calm     93% 0.00 in 0 W/m2
00:50 51.6 °F 49.6 °F 29.94 in Calm     93% 0.00 in 0 W/m2
00:56 51.6 °F 49.6 °F 29.94 in Calm     93% 0.00 in 0 W/m2
01:02 51.8 °F 49.8 °F 29.94 in Calm     93% 0.00 in 0 W/m2
01:08 51.9 °F 49.9 °F 29.94 in Calm     93% 0.00 in 0 W/m2
01:16 51.9 °F 49.9 °F 29.95 in Calm     93% 0.00 in 0 W/m2
01:22 52.0 °F 50.3 °F 29.95 in Calm     94% 0.00 in 0 W/m2
01:28 52.0 °F 50.3 °F 29.95 in Calm     94% 0.00 in 0 W/m2
01:34 52.0 °F 50.3 °F 29.95 in Calm     94% 0.00 in 0 W/m2
01:40 52.0 °F 50.3 °F 29.96 in Calm     94% 0.00 in 0 W/m2
01:46 52.0 °F 50.3 °F 29.96 in Calm   1.0 mph 94% 0.00 in 0 W/m2
01:52 51.9 °F 49.9 °F 29.96 in Calm   2.0 mph 93% 0.00 in 0 W/m2
01:58 51.6 °F 49.9 °F 29.96 in NNE 1.0 mph 2.0 mph 94% 0.00 in 0 W/m2
02:04 51.5 °F 49.8 °F 29.96 in Calm   1.0 mph 94% 0.00 in 0 W/m2
02:10 51.4 °F 49.7 °F 29.97 in Calm     94% 0.00 in 0 W/m2
02:16 51.3 °F 49.3 °F 29.97 in Calm     93% 0.00 in 0 W/m2
02:22 51.2 °F 49.2 °F 29.97 in Calm   1.0 mph 93% 0.00 in 0 W/m2
02:28 51.0 °F 49.3 °F 29.97 in WNW 1.0 mph 2.0 mph 94% 0.00 in 0 W/m2
02:34 50.9 °F 49.2 °F 29.97 in Calm   1.0 mph 94% 0.00 in 0 W/m2
02:40 50.8 °F 49.1 °F 29.97 in Calm   1.0 mph 94% 0.00 in 0 W/m2
02:46 50.6 °F 48.7 °F 29.97 in NW 1.0 mph 2.0 mph 93% 0.00 in 0 W/m2
02:52 50.5 °F 48.8 °F 29.97 in NW 1.0 mph 2.0 mph 94% 0.00 in 0 W/m2
02:58 50.5 °F 48.8 °F 29.97 in NW 1.0 mph 2.0 mph 94% 0.00 in 0 W/m2
03:04 50.4 °F 48.7 °F 29.98 in NW 1.0 mph 2.0 mph 94% 0.00 in 0 W/m2
03:10 50.3 °F 48.6 °F 29.98 in NNW 2.0 mph 2.0 mph 94% 0.00 in 0 W/m2
03:16 50.3 °F 48.6 °F 29.98 in NNW 1.0 mph 2.0 mph 94% 0.00 in 0 W/m2
03:22 50.3 °F 48.6 °F 29.99 in NNE 2.0 mph 2.0 mph 94% 0.00 in 0 W/m2
03:28 50.2 °F 48.5 °F 29.99 in North 2.0 mph 3.0 mph 94% 0.00 in 0 W/m2
03:34 50.0 °F 48.1 °F 29.99 in North 2.0 mph 3.0 mph 93% 0.00 in 0 W/m2
03:40 49.8 °F 47.9 °F 29.99 in NW 2.0 mph 2.0 mph 93% 0.00 in 0 W/m2
03:46 49.6 °F 47.7 °F 30.00 in NNE 3.0 mph 7.0 mph 93% 0.00 in 0 W/m2
03:52 49.4 °F 47.5 °F 30.00 in NNE 3.0 mph 3.0 mph 93% 0.00 in 0 W/m2
03:58 49.2 °F 47.3 °F 30.00 in North 3.0 mph 4.0 mph 93% 0.00 in 0 W/m2
04:04 49.0 °F 47.1 °F 30.00 in NNW 3.0 mph 6.0 mph 93% 0.07 in 0 W/m2
04:10 48.8 °F 46.9 °F 30.01 in WNW 3.0 mph 3.0 mph 93% 0.06 in 0 W/m2
04:16 48.7 °F 46.8 °F 30.01 in WNW 3.0 mph 4.0 mph 93% 0.04 in 0 W/m2
04:22 48.6 °F 46.7 °F 30.02 in North 3.0 mph 3.0 mph 93% 0.04 in 0 W/m2
04:28 48.4 °F 46.5 °F 30.02 in North 3.0 mph 3.0 mph 93% 0.07 in 0 W/m2
04:34 48.3 °F 46.4 °F 30.02 in North 3.0 mph 3.0 mph 93% 0.06 in 0 W/m2
04:40 48.1 °F 46.2 °F 30.03 in North 3.0 mph 5.0 mph 93% 0.04 in 0 W/m2
04:46 48.0 °F 46.1 °F 30.03 in NW 3.0 mph 5.0 mph 93% 0.00 in 0 W/m2
04:52 47.8 °F 45.9 °F 30.04 in NW 3.0 mph 3.0 mph 93% 0.00 in 0 W/m2
04:58 47.7 °F 45.8 °F 30.04 in NW 3.0 mph 3.0 mph 93% 0.00 in 0 W/m2
05:04 47.6 °F 45.7 °F 30.05 in North 2.0 mph 3.0 mph 93% 0.00 in 0 W/m2
05:10 47.5 °F 45.6 °F 30.05 in NW 2.0 mph 2.0 mph 93% 0.00 in 0 W/m2
05:16 47.2 °F 45.3 °F 30.06 in NW 3.0 mph 6.0 mph 93% 0.00 in 0 W/m2
05:22 47.1 °F 45.2 °F 30.06 in WNW 3.0 mph 4.0 mph 93% 0.00 in 0 W/m2
05:30 46.9 °F 45.0 °F 30.07 in NW 3.0 mph 3.0 mph 93% 0.00 in 0 W/m2
05:36 46.8 °F 44.9 °F 30.07 in NW 3.0 mph 4.0 mph 93% 0.00 in 0 W/m2
05:42 46.7 °F 44.8 °F 30.08 in NNW 3.0 mph 4.0 mph 93% 0.00 in 0 W/m2
05:48 46.7 °F 44.8 °F 30.08 in NNW 2.0 mph 4.0 mph 93% 0.00 in 0 W/m2
05:54 46.6 °F 44.7 °F 30.08 in NW 2.0 mph 3.0 mph 93% 0.00 in 0 W/m2
06:00 46.5 °F 44.6 °F 30.09 in NW 3.0 mph 4.0 mph 93% 0.00 in 0 W/m2
06:06 46.5 °F 44.6 °F 30.09 in NNW 3.0 mph 5.0 mph 93% 0.00 in 0 W/m2
06:12 46.4 °F 44.5 °F 30.10 in NW 1.0 mph 2.0 mph 93% 0.00 in 0 W/m2
06:18 46.4 °F 44.5 °F 30.10 in NNE 1.0 mph 4.0 mph 93% 0.00 in 0 W/m2
06:24 46.3 °F 44.4 °F 30.10 in NNW 2.0 mph 2.0 mph 93% 0.00 in 0 W/m2
06:30 46.3 °F 44.4 °F 30.11 in NW 2.0 mph 2.0 mph 93% 0.00 in 0 W/m2
06:36 46.3 °F 44.4 °F 30.11 in NNW 1.0 mph 3.0 mph 93% 0.00 in 0 W/m2
06:42 46.2 °F 44.3 °F 30.11 in WNW 2.0 mph 4.0 mph 93% 0.00 in 0 W/m2
06:48 46.1 °F 44.2 °F 30.13 in North 3.0 mph 5.0 mph 93% 0.00 in 0 W/m2
06:54 46.1 °F 44.2 °F 30.13 in North 2.0 mph 3.0 mph 93% 0.00 in 0 W/m2
07:00 46.1 °F 44.2 °F 30.13 in NW 2.0 mph 3.0 mph 93% 0.00 in 0 W/m2
07:06 46.1 °F 44.2 °F 30.14 in NNW 2.0 mph 3.0 mph 93% 0.00 in 0 W/m2
07:12 46.0 °F 44.1 °F 30.14 in North 2.0 mph 2.0 mph 93% 0.00 in 7 W/m2
07:18 46.0 °F 43.8 °F 30.14 in North 2.0 mph 4.0 mph 92% 0.00 in 18 W/m2
07:24 45.9 °F 43.7 °F 30.15 in WNW 3.0 mph 3.0 mph 92% 0.00 in 21 W/m2
07:30 45.9 °F 43.7 °F 30.15 in NNW 2.0 mph 3.0 mph 92% 0.00 in 30 W/m2
07:36 45.9 °F 43.7 °F 30.16 in NNW 3.0 mph 6.0 mph 92% 0.00 in 47 W/m2
07:42 46.0 °F 43.8 °F 30.16 in NW 3.0 mph 3.0 mph 92% 0.00 in 63 W/m2
07:48 46.0 °F 43.8 °F 30.16 in NW 3.0 mph 4.0 mph 92% 0.00 in 54 W/m2
07:54 46.0 °F 43.8 °F 30.17 in NW 3.0 mph 4.0 mph 92% 0.00 in 40 W/m2
08:00 46.1 °F 43.9 °F 30.17 in NNW 3.0 mph 4.0 mph 92% 0.00 in 35 W/m2
08:06 46.1 °F 43.9 °F 30.18 in NNW 3.0 mph 6.0 mph 92% 0.00 in 44 W/m2
08:12 46.2 °F 44.0 °F 30.18 in NW 2.0 mph 3.0 mph 92% 0.00 in 53 W/m2
08:18 46.3 °F 44.1 °F 30.18 in NNW 3.0 mph 9.0 mph 92% 0.00 in 53 W/m2
08:24 46.4 °F 44.2 °F 30.19 in NNW 4.0 mph 4.0 mph 92% 0.00 in 42 W/m2
08:30 46.3 °F 43.8 °F 30.19 in NW 3.0 mph 3.0 mph 91% 0.00 in 70 W/m2
08:36 46.5 °F 44.0 °F 30.19 in NNW 4.0 mph 4.0 mph 91% 0.00 in 62 W/m2
08:42 46.6 °F 44.1 °F 30.19 in NNE 4.0 mph 4.0 mph 91% 0.00 in 90 W/m2
08:48 46.9 °F 44.1 °F 30.20 in North 4.0 mph 10.0 mph 90% 0.00 in 109 W/m2
08:54 47.1 °F 44.3 °F 30.20 in NNE 4.0 mph 4.0 mph 90% 0.00 in 95 W/m2
09:00 47.3 °F 44.5 °F 30.21 in NNE 4.0 mph 7.0 mph 90% 0.00 in 146 W/m2
09:06 47.7 °F 44.9 °F 30.21 in North 4.0 mph 7.0 mph 90% 0.00 in 174 W/m2
09:12 48.1 °F 45.0 °F 30.21 in NNW 3.0 mph 7.0 mph 89% 0.00 in 169 W/m2
09:18 48.2 °F 44.8 °F 30.21 in North 3.0 mph 7.0 mph 88% 0.00 in 183 W/m2
09:24 48.3 °F 44.6 °F 30.22 in North 3.0 mph 6.0 mph 87% 0.00 in 195 W/m2
09:30 48.5 °F 44.8 °F 30.22 in North 5.0 mph 8.0 mph 87% 0.00 in 206 W/m2
09:36 48.5 °F 44.5 °F 30.23 in NW 6.0 mph 8.0 mph 86% 0.00 in 151 W/m2
09:42 48.3 °F 44.0 °F 30.24 in NNE 5.0 mph 6.0 mph 85% 0.00 in 134 W/m2
09:48 48.5 °F 44.2 °F 30.24 in NNW 5.0 mph 6.0 mph 85% 0.00 in 156 W/m2
09:54 48.7 °F 44.4 °F 30.24 in WNW 4.0 mph 5.0 mph 85% 0.00 in 141 W/m2
10:00 48.8 °F 44.2 °F 30.24 in NNW 5.0 mph 5.0 mph 84% 0.00 in 171 W/m2
10:06 48.9 °F 44.0 °F 30.25 in North 6.0 mph 7.0 mph 83% 0.00 in 207 W/m2
10:12 49.2 °F 43.9 °F 30.25 in NNW 4.0 mph 5.0 mph 82% 0.00 in 243 W/m2
10:18 49.4 °F 43.8 °F 30.25 in North 5.0 mph 8.0 mph 81% 0.00 in 290 W/m2
10:24 49.9 °F 44.3 °F 30.25 in North 5.0 mph 9.0 mph 81% 0.00 in 262 W/m2
10:30 50.1 °F 44.2 °F 30.26 in NE 5.0 mph 6.0 mph 80% 0.00 in 264 W/m2
10:36 50.1 °F 43.5 °F 30.26 in NNE 5.0 mph 6.0 mph 78% 0.00 in 253 W/m2
10:42 50.9 °F 44.9 °F 30.26 in NNW 4.0 mph 5.0 mph 80% 0.00 in 406 W/m2
10:48 52.5 °F 45.2 °F 30.26 in North 3.0 mph 5.0 mph 76% 0.00 in 566 W/m2
10:54 53.2 °F 44.4 °F 30.26 in ENE 5.0 mph 5.0 mph 72% 0.00 in 397 W/m2
11:00 53.0 °F 43.1 °F 30.26 in NW 5.0 mph 5.0 mph 69% 0.00 in 605 W/m2
11:06 54.4 °F 46.3 °F 30.27 in North 4.0 mph 5.0 mph 74% 0.00 in 837 W/m2
11:12 54.5 °F 46.4 °F 30.27 in NNW 3.0 mph 5.0 mph 74% 0.00 in 780 W/m2
11:18 53.2 °F 43.7 °F 30.27 in NNW 4.0 mph 5.0 mph 70% 0.00 in 276 W/m2
11:24 53.2 °F 43.7 °F 30.27 in North 4.0 mph 6.0 mph 70% 0.00 in 833 W/m2
11:30 53.4 °F 43.1 °F 30.27 in NE 5.0 mph 5.0 mph 68% 0.00 in 236 W/m2
11:36 53.9 °F 43.6 °F 30.27 in ENE 5.0 mph 8.0 mph 68% 0.00 in 301 W/m2
11:42 55.6 °F 44.8 °F 30.27 in North 4.0 mph 4.0 mph 67% 0.00 in 325 W/m2
11:48 54.7 °F 43.6 °F 30.27 in NNW 4.0 mph 9.0 mph 66% 0.00 in 251 W/m2
11:54 54.6 °F 43.5 °F 30.27 in North 5.0 mph 6.0 mph 66% 0.00 in 652 W/m2
12:00 54.4 °F 42.9 °F 30.28 in WNW 5.0 mph 5.0 mph 65% 0.00 in 262 W/m2
12:06 53.9 °F 43.2 °F 30.28 in NW 5.0 mph 8.0 mph 67% 0.00 in 264 W/m2
12:12 53.9 °F 42.4 °F 30.28 in NNW 5.0 mph 5.0 mph 65% 0.00 in 255 W/m2
12:18 54.5 °F 43.4 °F 30.28 in NW 4.0 mph 6.0 mph 66% 0.00 in 339 W/m2
12:24 55.0 °F 43.4 °F 30.28 in NNW 4.0 mph 5.0 mph 65% 0.00 in 269 W/m2
12:30 54.6 °F 43.1 °F 30.28 in North 4.0 mph 4.0 mph 65% 0.00 in 251 W/m2
12:36 55.5 °F 43.9 °F 30.28 in North 5.0 mph 9.0 mph 65% 0.00 in 965 W/m2
12:42 55.5 °F 42.7 °F 30.28 in NNE 7.0 mph 9.0 mph 62% 0.00 in 279 W/m2
12:48 54.6 °F 41.8 °F 30.29 in NW 6.0 mph 9.0 mph 62% 0.00 in 253 W/m2
12:54 54.4 °F 43.7 °F 30.28 in WNW 4.0 mph 6.0 mph 67% 0.00 in 338 W/m2
13:00 54.7 °F 41.9 °F 30.28 in North 3.0 mph 3.0 mph 62% 0.00 in 262 W/m2
13:06 54.6 °F 41.8 °F 30.28 in NNW 4.0 mph 7.0 mph 62% 0.00 in 158 W/m2
13:12 54.5 °F 42.2 °F 30.28 in NW 5.0 mph 7.0 mph 63% 0.00 in 200 W/m2
13:18 54.5 °F 43.0 °F 30.28 in NW 5.0 mph 7.0 mph 65% 0.00 in 237 W/m2
13:24 54.8 °F 42.9 °F 30.29 in NW 5.0 mph 6.0 mph 64% 0.00 in 343 W/m2
13:30 55.7 °F 42.5 °F 30.29 in NNW 5.0 mph 6.0 mph 61% 0.00 in 297 W/m2
13:36 55.5 °F 42.3 °F 30.28 in North 5.0 mph 7.0 mph 61% 0.00 in 258 W/m2
13:42 55.5 °F 42.7 °F 30.29 in North 3.0 mph 5.0 mph 62% 0.00 in 186 W/m2
13:48 55.3 °F 41.2 °F 30.28 in North 3.0 mph 6.0 mph 59% 0.00 in 156 W/m2
13:56 54.9 °F 41.3 °F 30.29 in NW 4.0 mph 5.0 mph 60% 0.00 in 130 W/m2
14:02 54.7 °F 41.1 °F 30.29 in NNE 4.0 mph 7.0 mph 60% 0.00 in 148 W/m2
14:08 54.6 °F 41.8 °F 30.29 in NW 4.0 mph 7.0 mph 62% 0.00 in 176 W/m2
14:14 54.8 °F 41.2 °F 30.29 in North 3.0 mph 7.0 mph 60% 0.00 in 214 W/m2
14:20 55.0 °F 41.4 °F 30.29 in NW 3.0 mph 3.0 mph 60% 0.00 in 234 W/m2
14:26 55.2 °F 41.5 °F 30.29 in North 3.0 mph 3.0 mph 60% 0.00 in 183 W/m2
14:32 55.2 °F 41.1 °F 30.30 in North 3.0 mph 3.0 mph 59% 0.00 in 153 W/m2
14:44 55.1 °F 40.6 °F 30.30 in NNW 3.0 mph 3.0 mph 58% 0.00 in 207 W/m2
14:50 55.2 °F 40.7 °F 30.30 in NNW 3.0 mph 3.0 mph 58% 0.00 in 223 W/m2
14:56 55.5 °F 39.6 °F 30.30 in NW 4.0 mph 5.0 mph 55% 0.00 in 246 W/m2
15:02 55.4 °F 39.0 °F 30.30 in North 5.0 mph 7.0 mph 54% 0.00 in 250 W/m2
15:08 55.2 °F 39.3 °F 30.30 in NNW 4.0 mph 7.0 mph 55% 0.00 in 246 W/m2
15:14 55.2 °F 39.8 °F 30.30 in North 4.0 mph 6.0 mph 56% 0.00 in 262 W/m2
15:20 55.3 °F 39.4 °F 30.30 in WNW 5.0 mph 6.0 mph 55% 0.00 in 278 W/m2
15:26 55.4 °F 40.0 °F 30.30 in NW 5.0 mph 6.0 mph 56% 0.00 in 301 W/m2
15:32 55.2 °F 38.4 °F 30.30 in NNE 4.0 mph 8.0 mph 53% 0.00 in 262 W/m2
15:38 55.3 °F 39.4 °F 30.30 in NW 4.0 mph 8.0 mph 55% 0.00 in 213 W/m2
15:44 55.3 °F 39.9 °F 30.30 in North 3.0 mph 4.0 mph 56% 0.00 in 204 W/m2
15:50 55.3 °F 39.9 °F 30.30 in NW 3.0 mph 3.0 mph 56% 0.00 in 186 W/m2
15:56 55.1 °F 39.7 °F 30.30 in NNE 3.0 mph 3.0 mph 56% 0.00 in 229 W/m2
16:02 55.4 °F 39.0 °F 30.30 in NNW 3.0 mph 4.0 mph 54% 0.00 in 272 W/m2
16:08 56.3 °F 37.9 °F 30.30 in NNE 3.0 mph 7.0 mph 50% 0.00 in 501 W/m2
16:20 57.3 °F 38.3 °F 30.30 in North 2.0 mph 5.0 mph 49% 0.00 in 483 W/m2
16:26 57.5 °F 38.5 °F 30.30 in NE 2.0 mph 5.0 mph 49% 0.00 in 439 W/m2
16:32 56.6 °F 37.1 °F 30.30 in NW 3.0 mph 4.0 mph 48% 0.00 in 146 W/m2
16:50 56.1 °F 39.2 °F 30.31 in NW 3.0 mph 3.0 mph 53% 0.00 in 381 W/m2
16:56 57.0 °F 39.5 °F 30.30 in NW 2.0 mph 3.0 mph 52% 0.00 in 107 W/m2
17:02 56.4 °F 40.0 °F 30.30 in NW 1.0 mph 1.0 mph 54% 0.00 in 102 W/m2
17:08 55.6 °F 39.7 °F 30.30 in NW 1.0 mph 4.0 mph 55% 0.00 in 91 W/m2
17:14 55.3 °F 39.4 °F 30.30 in NW 1.0 mph 1.0 mph 55% 0.00 in 104 W/m2
17:20 55.3 °F 38.9 °F 30.30 in North 1.0 mph 2.0 mph 54% 0.00 in 79 W/m2
17:26 54.9 °F 39.5 °F 30.31 in NNW 2.0 mph 5.0 mph 56% 0.00 in 56 W/m2
17:32 54.6 °F 40.1 °F 30.30 in NNW 3.0 mph 4.0 mph 58% 0.00 in 49 W/m2
17:38 54.3 °F 40.3 °F 30.31 in NNW 1.0 mph 4.0 mph 59% 0.00 in 26 W/m2
17:44 53.9 °F 39.9 °F 30.31 in NNW 1.0 mph 1.0 mph 59% 0.00 in 28 W/m2
17:50 53.4 °F 39.9 °F 30.32 in Calm     60% 0.00 in 21 W/m2
17:56 52.9 °F 40.2 °F 30.32 in Calm     62% 0.00 in 21 W/m2
18:02 52.4 °F 40.2 °F 30.32 in Calm     63% 0.00 in 23 W/m2
18:08 51.9 °F 40.9 °F 30.32 in Calm     66% 0.00 in 16 W/m2
18:14 51.4 °F 40.8 °F 30.32 in Calm     67% 0.00 in 14 W/m2
18:16 51.1 °F 40.9 °F 30.32 in Calm     68% 0.00 in 14 W/m2
18:22 50.6 °F 41.2 °F 30.32 in Calm     70% 0.00 in 12 W/m2
18:28 50.0 °F 41.0 °F 30.32 in Calm     71% 0.00 in 11 W/m2
18:34 49.6 °F 40.9 °F 30.32 in Calm     72% 0.00 in 9 W/m2
18:40 49.1 °F 40.8 °F 30.32 in Calm     73% 0.00 in 7 W/m2
18:46 48.7 °F 40.8 °F 30.32 in Calm     74% 0.00 in 5 W/m2
18:52 48.1 °F 40.5 °F 30.32 in Calm     75% 0.00 in 0 W/m2
18:58 47.6 °F 40.7 °F 30.32 in Calm     77% 0.00 in 0 W/m2
19:04 47.2 °F 40.7 °F 30.32 in Calm     78% 0.00 in 0 W/m2
19:10 46.9 °F 40.7 °F 30.33 in Calm     79% 0.00 in 0 W/m2
19:16 46.5 °F 40.7 °F 30.33 in Calm     80% 0.00 in 0 W/m2
19:22 46.2 °F 40.7 °F 30.33 in Calm     81% 0.00 in 0 W/m2
19:28 45.7 °F 40.5 °F 30.33 in Calm     82% 0.00 in 0 W/m2
19:34 45.3 °F 40.1 °F 30.33 in Calm     82% 0.00 in 0 W/m2
19:40 44.9 °F 40.0 °F 30.33 in Calm     83% 0.00 in 0 W/m2
19:46 44.7 °F 40.2 °F 30.33 in Calm     84% 0.00 in 0 W/m2
19:52 44.5 °F 40.0 °F 30.34 in Calm     84% 0.00 in 0 W/m2
19:58 44.2 °F 40.0 °F 30.34 in Calm     85% 0.00 in 0 W/m2
20:04 43.9 °F 39.7 °F 30.34 in Calm     85% 0.00 in 0 W/m2
20:10 43.8 °F 39.9 °F 30.35 in Calm     86% 0.00 in 0 W/m2
20:16 43.6 °F 39.7 °F 30.35 in Calm     86% 0.00 in 0 W/m2
20:22 43.3 °F 39.4 °F 30.35 in Calm     86% 0.00 in 0 W/m2
20:28 43.1 °F 39.5 °F 30.35 in Calm     87% 0.00 in 0 W/m2
20:36 42.9 °F 39.3 °F 30.35 in Calm     87% 0.00 in 0 W/m2
20:42 42.7 °F 39.1 °F 30.35 in Calm     87% 0.00 in 0 W/m2
20:48 42.7 °F 39.4 °F 30.35 in Calm     88% 0.00 in 0 W/m2
20:56 42.5 °F 39.2 °F 30.36 in Calm     88% 0.00 in 0 W/m2
21:02 42.3 °F 39.0 °F 30.36 in Calm     88% 0.00 in 0 W/m2
21:14 41.9 °F 38.6 °F 30.37 in Calm     88% 0.00 in 0 W/m2
21:20 41.9 °F 38.9 °F 30.37 in Calm     89% 0.00 in 0 W/m2
21:26 41.9 °F 38.9 °F 30.37 in Calm     89% 0.00 in 0 W/m2
21:32 41.7 °F 38.7 °F 30.36 in Calm     89% 0.00 in 0 W/m2
21:38 41.4 °F 38.4 °F 30.37 in Calm     89% 0.00 in 0 W/m2
21:44 41.3 °F 38.3 °F 30.37 in Calm     89% 0.00 in 0 W/m2
21:50 41.2 °F 38.5 °F 30.37 in Calm     90% 0.00 in 0 W/m2
21:56 40.9 °F 37.9 °F 30.37 in Calm     89% 0.00 in 0 W/m2
22:02 40.8 °F 38.1 °F 30.37 in Calm     90% 0.00 in 0 W/m2
22:08 40.8 °F 38.1 °F 30.37 in Calm     90% 0.00 in 0 W/m2
22:14 40.8 °F 38.1 °F 30.37 in Calm     90% 0.00 in 0 W/m2
22:22 40.4 °F 37.7 °F 30.37 in Calm     90% 0.00 in 0 W/m2
22:28 40.4 °F 38.0 °F 30.37 in Calm     91% 0.00 in 0 W/m2
22:40 40.3 °F 37.9 °F 30.37 in Calm     91% 0.00 in 0 W/m2
22:46 40.0 °F 37.6 °F 30.37 in Calm     91% 0.00 in 0 W/m2
22:52 39.9 °F 37.5 °F 30.37 in Calm     91% 0.00 in 0 W/m2
22:58 40.0 °F 37.6 °F 30.37 in Calm     91% 0.00 in 0 W/m2
23:04 40.0 °F 37.6 °F 30.37 in Calm     91% 0.00 in 0 W/m2
23:16 39.7 °F 37.3 °F 30.37 in Calm   1.0 mph 91% 0.00 in 0 W/m2
23:22 39.8 °F 37.7 °F 30.37 in Calm   1.0 mph 92% 0.00 in 0 W/m2
23:28 39.7 °F 37.6 °F 30.37 in Calm     92% 0.00 in 0 W/m2
23:34 39.5 °F 37.4 °F 30.37 in Calm     92% 0.00 in 0 W/m2
23:40 39.3 °F 36.9 °F 30.37 in Calm     91% 0.00 in 0 W/m2
23:46 39.1 °F 37.0 °F 30.37 in Calm     92% 0.00 in 0 W/m2
23:52 38.9 °F 36.8 °F 30.37 in Calm     92% 0.00 in 0 W/m2
23:58 38.8 °F 36.7 °F 30.37 in Calm     92% 0.00 in 0 W/m2
Country Meadow, Clay, NY, USA
Compliments of Weather Underground - 2 mb